Time;durP1;ratioP1;P1;durP2;ratioP2;P2;SDS_P1;SDS_P2;PMS_P1;PMS_P2;Temp;Humidity;BMP_temperature;BMP_pressure;BME280_temperature;BME280_humidity;BME280_pressure;Samples;Min_cycle;Max_cycle;Signal;HPM_P1;HPM_P2
2024/01/11 00:00:40;;;;;;;51.97;21.60;;;-2.10;1.00;;;;;;5034953;28;20237;-52
2024/01/11 00:03:06;;;;;;;51.90;19.97;;;-2.00;99.90;;;;;;5035234;28;20199;-50
2024/01/11 00:05:32;;;;;;;52.07;21.20;;;-2.00;13.80;;;;;;5034068;28;20183;-51
2024/01/11 00:07:57;;;;;;;47.30;20.33;;;-2.00;1.00;;;;;;5034292;28;20239;-52
2024/01/11 00:10:23;;;;;;;55.30;22.47;;;-2.00;1.00;;;;;;5034943;28;20191;-50
2024/01/11 00:12:48;;;;;;;52.23;21.50;;;-1.90;23.10;;;;;;5035032;28;20282;-51
2024/01/11 00:15:18;;;;;;;47.50;20.63;;;-1.90;99.90;;;;;;5035305;28;20211;-51
2024/01/11 00:17:44;;;;;;;51.37;20.90;;;-1.80;1.00;;;;;;5034152;28;21292;-52
2024/01/11 00:20:10;;;;;;;57.00;22.10;;;-1.80;99.90;;;;;;5033548;28;20840;-51
2024/01/11 00:22:36;;;;;;;53.20;21.60;;;-1.90;99.90;;;;;;5034550;28;20567;-51
2024/01/11 00:25:02;;;;;;;55.70;22.90;;;-1.90;1.00;;;;;;5034672;28;20442;-50
2024/01/11 00:27:28;;;;;;;48.47;21.10;;;-1.90;99.90;;;;;;5034217;28;20184;-51
2024/01/11 00:29:53;;;;;;;46.03;19.10;;;-1.90;99.90;;;;;;5033274;28;20411;-52
2024/01/11 00:32:20;;;;;;;42.77;17.90;;;-1.90;1.00;;;;;;5034426;28;20261;-50
2024/01/11 00:34:46;;;;;;;44.93;20.87;;;-1.80;99.90;;;;;;5033541;28;20187;-50
2024/01/11 00:37:12;;;;;;;45.60;20.00;;;-1.90;99.90;;;;;;5034577;28;20422;-50
2024/01/11 00:39:38;;;;;;;44.63;18.63;;;-1.90;1.00;;;;;;5034005;28;20422;-50
2024/01/11 00:42:03;;;;;;;44.43;18.20;;;-1.90;1.00;;;;;;5033568;28;20236;-51
2024/01/11 00:44:29;;;;;;;48.33;18.30;;;-1.90;99.90;;;;;;5033845;28;20191;-50
2024/01/11 00:46:55;;;;;;;43.67;19.33;;;-1.80;1.00;;;;;;5034297;28;20424;-51
2024/01/11 00:49:21;;;;;;;38.40;17.20;;;-1.80;1.00;;;;;;5034266;28;20184;-51
2024/01/11 00:51:47;;;;;;;39.93;16.60;;;-1.90;1.00;;;;;;5033498;28;20180;-50
2024/01/11 00:54:12;;;;;;;41.57;18.00;;;-1.90;1.00;;;;;;5033149;28;20188;-50
2024/01/11 00:56:38;;;;;;;41.80;18.80;;;-1.90;1.00;;;;;;5033954;28;20186;-50
2024/01/11 00:59:04;;;;;;;46.13;19.50;;;-1.90;8.20;;;;;;5033975;28;20183;-51
2024/01/11 01:01:29;;;;;;;50.40;18.43;;;-1.90;99.90;;;;;;5033272;28;20207;-49
2024/01/11 01:03:55;;;;;;;43.40;17.10;;;-1.90;99.90;;;;;;5033558;28;20903;-49
2024/01/11 01:06:20;;;;;;;45.17;18.60;;;-1.90;99.90;;;;;;5034093;28;20176;-50
2024/01/11 01:08:46;;;;;;;41.17;19.10;;;-1.90;1.00;;;;;;5033515;28;20231;-52
2024/01/11 01:11:11;;;;;;;45.60;18.47;;;-1.90;1.00;;;;;;5033032;28;20179;-50
2024/01/11 01:13:37;;;;;;;44.83;17.30;;;-1.90;1.00;;;;;;5033609;28;20301;-50
2024/01/11 01:16:03;;;;;;;42.93;17.43;;;-1.90;1.00;;;;;;5032937;28;20188;-50
2024/01/11 01:18:28;;;;;;;47.77;19.00;;;-2.00;2.40;;;;;;5033755;28;20191;-50
2024/01/11 01:20:56;;;;;;;49.67;18.50;;;-1.90;99.90;;;;;;5033488;28;20190;-51
2024/01/11 01:23:21;;;;;;;53.53;20.23;;;-2.00;99.90;;;;;;5033199;28;20199;-50
2024/01/11 01:25:47;;;;;;;43.80;17.87;;;-2.00;99.90;;;;;;5032851;28;20418;-50
2024/01/11 01:28:12;;;;;;;45.33;18.17;;;-2.00;99.90;;;;;;5033146;28;20190;-50
2024/01/11 01:30:38;;;;;;;51.80;19.87;;;-2.00;1.00;;;;;;5033345;28;20183;-50
2024/01/11 01:33:04;;;;;;;46.20;18.00;;;-1.90;1.00;;;;;;5032700;28;20250;-50
2024/01/11 01:35:29;;;;;;;45.63;18.50;;;-2.00;1.00;;;;;;5033304;28;20188;-50
2024/01/11 01:37:55;;;;;;;46.03;18.47;;;-2.00;1.00;;;;;;5033585;28;20191;-51
2024/01/11 01:40:21;;;;;;;65.40;20.80;;;-2.00;1.00;;;;;;5032991;28;20179;-51
2024/01/11 01:42:46;;;;;;;53.13;19.67;;;-2.00;1.00;;;;;;5032863;28;20191;-50
2024/01/11 01:45:14;;;;;;;48.30;18.40;;;-2.00;1.00;;;;;;5033002;28;20206;-51
2024/01/11 01:47:42;;;;;;;54.10;19.30;;;-2.00;1.00;;;;;;5032854;28;20259;-50
2024/01/11 01:50:09;;;;;;;50.80;19.40;;;-2.10;1.00;;;;;;5032671;28;20441;-51
2024/01/11 01:52:37;;;;;;;45.83;17.13;;;-2.00;1.00;;;;;;5032709;28;20453;-51
2024/01/11 01:55:05;;;;;;;56.13;19.07;;;-2.10;1.00;;;;;;5032947;28;20433;-51
2024/01/11 01:57:33;;;;;;;55.83;20.03;;;-2.10;1.00;;;;;;5032132;28;20450;-54
2024/01/11 01:59:59;;;;;;;51.80;18.97;;;-2.10;1.00;;;;;;5032404;28;20771;-51
2024/01/11 02:02:25;;;;;;;48.80;19.17;;;-2.00;1.00;;;;;;5032581;28;20422;-50
2024/01/11 02:04:51;;;;;;;49.77;18.93;;;-2.10;1.00;;;;;;5032132;28;20433;-51
2024/01/11 02:07:18;;;;;;;54.53;21.20;;;-2.10;1.00;;;;;;5031912;28;20456;-52
2024/01/11 02:09:44;;;;;;;54.10;19.70;;;-2.00;1.00;;;;;;5031542;28;20480;-51
2024/01/11 02:12:10;;;;;;;53.27;20.80;;;-2.10;1.00;;;;;;5032157;28;20953;-51
2024/01/11 02:14:37;;;;;;;61.00;21.20;;;-2.10;1.00;;;;;;5032397;28;20175;-50
2024/01/11 02:17:03;;;;;;;52.97;20.80;;;-2.10;1.00;;;;;;5031782;28;20414;-51
2024/01/11 02:19:29;;;;;;;54.23;21.90;;;-2.10;1.00;;;;;;5031928;28;20440;-51
2024/01/11 02:21:59;;;;;;;56.37;21.33;;;-2.10;1.00;;;;;;5031880;28;20413;-51
2024/01/11 02:24:24;;;;;;;53.83;20.63;;;-2.10;1.00;;;;;;5032300;28;20191;-51
2024/01/11 02:27:04;;;;;;;54.80;21.90;;;-2.10;1.00;;;;;;5032326;28;20409;-50
2024/01/11 02:29:30;;;;;;;60.37;22.87;;;-2.10;1.00;;;;;;5031774;28;20183;-51
2024/01/11 02:31:57;;;;;;;64.43;22.40;;;-2.00;1.00;;;;;;5032102;28;20410;-51
2024/01/11 02:34:27;;;;;;;64.13;23.33;;;-2.00;1.00;;;;;;5031579;28;20410;-51
2024/01/11 02:36:56;;;;;;;61.77;22.07;;;-2.00;1.00;;;;;;5032403;28;20922;-51
2024/01/11 02:39:23;;;;;;;67.73;24.43;;;-2.00;1.00;;;;;;5032635;28;20424;-50
2024/01/11 02:41:50;;;;;;;68.30;23.30;;;-2.00;1.00;;;;;;5031973;28;20433;-51
2024/01/11 02:44:16;;;;;;;67.17;25.30;;;-2.00;1.00;;;;;;5032117;28;20918;-51
2024/01/11 02:46:42;;;;;;;73.40;24.00;;;-2.00;1.00;;;;;;5031554;28;20426;-51
2024/01/11 02:49:07;;;;;;;77.90;24.40;;;-1.90;2.20;;;;;;5031869;28;20669;-51
2024/01/11 02:51:33;;;;;;;81.30;26.63;;;-2.00;1.00;;;;;;5031613;28;20548;-51
2024/01/11 02:53:59;;;;;;;73.83;26.13;;;-2.00;1.00;;;;;;5031615;28;20282;-51
2024/01/11 02:56:25;;;;;;;75.53;26.10;;;-1.90;6.80;;;;;;5031345;28;20186;-50
2024/01/11 02:58:50;;;;;;;75.43;24.73;;;-1.80;17.70;;;;;;5032474;28;20266;-50
2024/01/11 03:01:16;;;;;;;68.10;23.70;;;-1.80;1.00;;;;;;5031241;28;20187;-51
2024/01/11 03:03:41;;;;;;;73.23;25.80;;;-1.80;1.00;;;;;;5031694;28;20267;-50
2024/01/11 03:06:07;;;;;;;69.70;24.97;;;-1.80;1.00;;;;;;5031490;28;20234;-51
2024/01/11 03:08:33;;;;;;;74.20;27.17;;;-1.90;1.00;;;;;;5031390;28;20246;-50
2024/01/11 03:10:58;;;;;;;64.83;24.23;;;-1.80;3.60;;;;;;5031554;28;20183;-50
2024/01/11 03:13:24;;;;;;;74.43;25.57;;;-1.70;1.00;;;;;;5031266;28;20472;-51
2024/01/11 03:15:50;;;;;;;61.03;23.47;;;-1.70;1.00;;;;;;5031484;28;20176;-51
2024/01/11 03:18:15;;;;;;;69.90;24.40;;;-1.70;1.00;;;;;;5031720;28;20212;-51
2024/01/11 03:20:41;;;;;;;75.93;28.03;;;-1.70;1.00;;;;;;5031788;28;20659;-50
2024/01/11 03:23:06;;;;;;;81.90;27.77;;;-1.70;1.00;;;;;;5034740;28;20215;-50
2024/01/11 03:25:32;;;;;;;75.07;26.37;;;-1.70;1.00;;;;;;5036010;28;20649;-50
2024/01/11 03:27:58;;;;;;;76.33;27.30;;;-1.70;1.00;;;;;;5035244;28;20219;-51
2024/01/11 03:30:24;;;;;;;64.33;23.33;;;-1.70;1.00;;;;;;5035317;28;20183;-50
2024/01/11 03:32:50;;;;;;;76.87;24.90;;;-1.70;3.90;;;;;;5035573;28;20552;-50
2024/01/11 03:35:18;;;;;;;73.07;26.70;;;-1.70;1.00;;;;;;5034992;28;21229;-51
2024/01/11 03:37:43;;;;;;;76.03;25.63;;;-1.70;1.00;;;;;;5034960;28;20180;-50
2024/01/11 03:40:09;;;;;;;72.53;23.97;;;-1.70;11.40;;;;;;5035643;28;20416;-50
2024/01/11 03:42:35;;;;;;;65.70;24.40;;;-1.70;19.40;;;;;;5035550;28;20190;-50
2024/01/11 03:45:00;;;;;;;74.37;25.37;;;-1.70;21.60;;;;;;5035155;28;20579;-50
2024/01/11 03:47:26;;;;;;;80.50;26.80;;;-1.60;38.40;;;;;;5034733;28;20180;-50
2024/01/11 03:49:51;;;;;;;74.47;26.50;;;-1.60;25.50;;;;;;5035484;28;20184;-51
2024/01/11 03:52:17;;;;;;;69.93;25.70;;;-1.50;27.70;;;;;;5034958;28;20218;-50
2024/01/11 03:54:43;;;;;;;76.43;26.07;;;-1.50;17.10;;;;;;5035069;28;20266;-50
2024/01/11 03:57:08;;;;;;;68.37;24.83;;;-1.60;1.00;;;;;;5034615;28;20623;-50
2024/01/11 03:59:35;;;;;;;72.63;24.90;;;-1.60;1.00;;;;;;5035012;28;20180;-50
2024/01/11 04:02:00;;;;;;;73.70;26.83;;;-1.60;1.00;;;;;;5034875;28;20179;-50
2024/01/11 04:04:26;;;;;;;77.80;26.50;;;-1.60;15.60;;;;;;5034841;28;20417;-51
2024/01/11 04:06:54;;;;;;;79.27;26.80;;;-1.60;23.10;;;;;;5034613;28;20180;-51
2024/01/11 04:09:20;;;;;;;73.13;25.70;;;-1.60;26.30;;;;;;5035062;28;20243;-50
2024/01/11 04:11:46;;;;;;;75.47;28.93;;;-1.60;39.10;;;;;;5034291;28;20552;-51
2024/01/11 04:14:12;;;;;;;90.53;29.50;;;-1.60;36.00;;;;;;5034910;28;20203;-51
2024/01/11 04:16:41;;;;;;;102.83;31.30;;;-1.60;39.40;;;;;;5035022;28;20421;-51
2024/01/11 04:19:07;;;;;;;93.33;31.70;;;-1.60;42.00;;;;;;5033406;28;20421;-50
2024/01/11 04:21:32;;;;;;;102.20;31.13;;;-1.60;32.10;;;;;;5034600;28;20556;-50
2024/01/11 04:23:58;;;;;;;112.13;34.83;;;-1.50;36.90;;;;;;5034186;28;20182;-50
2024/01/11 04:26:24;;;;;;;112.17;34.90;;;-1.40;47.20;;;;;;5034501;28;20210;-50
2024/01/11 04:28:52;;;;;;;112.67;36.53;;;-1.50;6.90;;;;;;5034601;28;20182;-51
2024/01/11 04:31:17;;;;;;;121.40;36.60;;;-1.60;1.00;;;;;;5034015;28;20538;-50
2024/01/11 04:33:45;;;;;;;119.03;35.90;;;-1.60;1.00;;;;;;5033567;28;20464;-51
2024/01/11 04:36:12;;;;;;;140.00;43.20;;;-1.60;1.00;;;;;;5033733;28;20199;-51
2024/01/11 04:38:38;;;;;;;120.80;39.03;;;-1.60;1.00;;;;;;5034239;28;20421;-51
2024/01/11 04:41:08;;;;;;;128.33;40.83;;;-1.70;1.00;;;;;;5034539;28;20487;-51
2024/01/11 04:43:37;;;;;;;119.83;37.73;;;-1.60;1.00;;;;;;5033657;28;20176;-51
2024/01/11 04:46:02;;;;;;;128.13;39.47;;;-1.60;1.00;;;;;;5033857;28;20450;-51
2024/01/11 04:48:28;;;;;;;124.20;40.27;;;-1.60;3.60;;;;;;5033977;28;20442;-51
2024/01/11 04:50:53;;;;;;;133.63;40.50;;;-1.60;1.00;;;;;;5034804;28;20217;-51
2024/01/11 04:53:19;;;;;;;137.33;40.30;;;-1.50;1.00;;;;;;5034282;28;20662;-51
2024/01/11 04:55:44;;;;;;;126.90;39.67;;;-1.60;1.00;;;;;;5033190;28;20714;-51
2024/01/11 04:58:10;;;;;;;121.17;38.83;;;-1.60;1.00;;;;;;5034126;28;20651;-52
2024/01/11 05:00:36;;;;;;;109.77;38.73;;;-1.60;1.00;;;;;;5033867;28;20183;-51
2024/01/11 05:03:01;;;;;;;123.70;38.77;;;-1.60;1.00;;;;;;5033324;28;20183;-51
2024/01/11 05:05:27;;;;;;;116.73;36.57;;;-1.50;1.00;;;;;;5033691;28;20218;-51
2024/01/11 05:07:52;;;;;;;120.43;37.10;;;-1.50;1.00;;;;;;5033950;28;20234;-51
2024/01/11 05:10:19;;;;;;;118.17;38.20;;;-1.50;1.00;;;;;;5032481;28;20172;-51
2024/01/11 05:12:44;;;;;;;118.13;36.40;;;-1.60;1.00;;;;;;5033760;28;20326;-50
2024/01/11 05:15:10;;;;;;;106.83;36.50;;;-1.60;1.00;;;;;;5033507;28;20518;-51
2024/01/11 05:17:35;;;;;;;87.33;29.90;;;-1.50;1.00;;;;;;5032782;28;20217;-51
2024/01/11 05:20:01;;;;;;;76.17;27.10;;;-1.50;1.00;;;;;;5033746;28;20183;-51
2024/01/11 05:22:27;;;;;;;77.50;28.13;;;-1.50;1.00;;;;;;5032643;28;20191;-52
2024/01/11 05:24:52;;;;;;;69.67;26.40;;;-1.60;1.00;;;;;;5033841;28;20426;-52
2024/01/11 05:27:18;;;;;;;69.47;25.40;;;-1.70;1.00;;;;;;5032715;28;20174;-52
2024/01/11 05:29:44;;;;;;;65.63;25.47;;;-1.70;1.00;;;;;;5033272;28;20191;-51
2024/01/11 05:32:09;;;;;;;64.53;22.43;;;-1.70;1.00;;;;;;5033182;28;20266;-50
2024/01/11 05:34:35;;;;;;;57.57;21.60;;;-1.70;1.00;;;;;;5032796;28;20219;-50
2024/01/11 05:37:00;;;;;;;52.47;19.53;;;-1.70;1.00;;;;;;5033051;28;20241;-50
2024/01/11 05:39:26;;;;;;;59.57;22.07;;;-1.60;1.00;;;;;;5033133;28;20186;-50
2024/01/11 05:41:52;;;;;;;48.83;19.90;;;-1.60;1.00;;;;;;5033757;28;20183;-51
2024/01/11 05:44:17;;;;;;;61.87;22.00;;;-1.60;1.00;;;;;;5031819;28;20255;-53
2024/01/11 05:46:44;;;;;;;54.53;20.50;;;-1.60;1.00;;;;;;5032152;28;20538;-51
2024/01/11 05:49:09;;;;;;;56.23;22.10;;;-1.60;1.00;;;;;;5032933;28;20187;-51
2024/01/11 05:51:35;;;;;;;50.43;20.53;;;-1.70;1.00;;;;;;5032926;28;20418;-51
2024/01/11 05:54:00;;;;;;;50.03;19.87;;;-1.70;1.00;;;;;;5032987;28;20204;-51
2024/01/11 05:56:26;;;;;;;46.27;17.63;;;-1.60;1.00;;;;;;5032875;28;20214;-51
2024/01/11 05:58:51;;;;;;;51.97;20.60;;;-1.60;1.00;;;;;;5032148;28;20218;-50
2024/01/11 06:01:17;;;;;;;53.87;19.10;;;-1.60;1.00;;;;;;5032362;28;20654;-51
2024/01/11 06:03:43;;;;;;;50.53;18.17;;;-1.60;1.00;;;;;;5032898;28;20197;-51
2024/01/11 06:06:09;;;;;;;45.67;16.10;;;-1.60;1.00;;;;;;5032551;28;20198;-51
2024/01/11 06:08:34;;;;;;;48.80;16.60;;;-1.60;1.00;;;;;;5032780;28;20235;-51
2024/01/11 06:11:00;;;;;;;45.33;17.10;;;-1.60;2.80;;;;;;5032811;28;20203;-51
2024/01/11 06:13:26;;;;;;;44.67;14.97;;;-1.60;12.60;;;;;;5031350;28;20220;-54
2024/01/11 06:15:51;;;;;;;40.00;15.10;;;-1.60;24.80;;;;;;5032466;28;20180;-51
2024/01/11 06:18:17;;;;;;;42.23;14.00;;;-1.60;20.40;;;;;;5032603;28;20411;-50
2024/01/11 06:20:42;;;;;;;56.70;16.50;;;-1.60;26.70;;;;;;5032255;28;20218;-50
2024/01/11 06:23:08;;;;;;;39.23;13.97;;;-1.60;37.40;;;;;;5031969;28;20187;-50
2024/01/11 06:25:33;;;;;;;40.23;14.40;;;-1.60;49.40;;;;;;5031635;28;20195;-51
2024/01/11 06:27:59;;;;;;;45.90;15.83;;;-1.60;50.80;;;;;;5032177;28;20186;-53
2024/01/11 06:30:25;;;;;;;47.37;14.63;;;-1.60;58.60;;;;;;5031630;28;20735;-51
2024/01/11 06:32:51;;;;;;;42.20;14.10;;;-1.50;77.90;;;;;;5032504;28;20206;-50
2024/01/11 06:35:16;;;;;;;44.50;15.37;;;-1.50;82.20;;;;;;5031538;28;20651;-50
2024/01/11 06:37:42;;;;;;;48.67;14.10;;;-1.50;87.70;;;;;;5031424;28;20189;-50
2024/01/11 06:40:08;;;;;;;49.00;14.00;;;-1.40;88.90;;;;;;5032309;28;20187;-50
2024/01/11 06:42:34;;;;;;;41.80;13.40;;;-1.40;91.90;;;;;;5032150;28;20421;-50
2024/01/11 06:45:01;;;;;;;45.53;13.87;;;-1.40;88.90;;;;;;5031501;28;20179;-51
2024/01/11 06:47:26;;;;;;;49.60;15.80;;;-1.40;94.50;;;;;;5031013;28;20480;-51
2024/01/11 06:49:53;;;;;;;51.53;15.60;;;-1.40;93.70;;;;;;5032656;28;20414;-52
2024/01/11 06:52:19;;;;;;;45.47;15.33;;;-1.40;99.70;;;;;;5032211;28;20588;-51
2024/01/11 06:54:45;;;;;;;48.57;14.53;;;-1.30;99.50;;;;;;5031278;28;20460;-51
2024/01/11 06:57:10;;;;;;;49.10;15.00;;;-1.30;99.90;;;;;;5031421;28;20214;-51
2024/01/11 06:59:37;;;;;;;48.53;14.90;;;-1.30;99.90;;;;;;5031740;28;20183;-52
2024/01/11 07:02:03;;;;;;;50.23;14.53;;;-1.30;99.90;;;;;;5031811;28;20274;-51
2024/01/11 07:04:28;;;;;;;54.03;16.30;;;-1.30;99.90;;;;;;5031165;28;20509;-51
2024/01/11 07:06:54;;;;;;;62.20;15.57;;;-1.30;99.90;;;;;;5032105;28;20270;-51
2024/01/11 07:09:20;;;;;;;64.20;15.57;;;-1.30;99.90;;;;;;5031200;28;20234;-51
2024/01/11 07:11:45;;;;;;;45.70;14.47;;;-1.20;99.90;;;;;;5031360;28;20237;-51
2024/01/11 07:14:11;;;;;;;50.50;15.67;;;-1.30;99.90;;;;;;5031206;28;20460;-51
2024/01/11 07:16:37;;;;;;;46.43;14.00;;;-1.30;99.90;;;;;;5031841;28;20210;-51
2024/01/11 07:19:02;;;;;;;55.60;16.27;;;-1.20;99.90;;;;;;5031732;28;20199;-50
2024/01/11 07:21:31;;;;;;;52.40;13.40;;;-1.20;99.90;;;;;;5031231;28;20758;-50
2024/01/11 07:23:58;;;;;;;47.90;14.93;;;-1.20;99.90;;;;;;5030951;28;20636;-50
2024/01/11 07:26:24;;;;;;;53.33;15.30;;;-1.20;99.90;;;;;;5031759;28;20854;-50
2024/01/11 07:28:51;;;;;;;66.37;14.27;;;-1.10;99.90;;;;;;5031862;28;20419;-50
2024/01/11 07:31:16;;;;;;;48.03;13.10;;;-1.00;99.90;;;;;;5031089;28;20413;-50
2024/01/11 07:33:42;;;;;;;56.83;14.90;;;-1.10;99.90;;;;;;5031057;28;20461;-50
2024/01/11 07:36:09;;;;;;;52.70;15.60;;;-1.10;99.90;;;;;;5031063;28;20211;-50
2024/01/11 07:38:34;;;;;;;45.27;13.10;;;-1.10;99.90;;;;;;5031744;28;20437;-52
2024/01/11 07:41:00;;;;;;;54.37;14.97;;;-1.10;99.90;;;;;;5031953;28;20413;-51
2024/01/11 07:43:28;;;;;;;52.90;14.87;;;-0.90;99.90;;;;;;5031102;28;20188;-51
2024/01/11 07:45:54;;;;;;;54.77;13.60;;;-0.90;99.90;;;;;;5031001;28;20773;-52
2024/01/11 07:48:19;;;;;;;51.47;14.00;;;-0.90;99.90;;;;;;5031610;28;20417;-51
2024/01/11 07:50:45;;;;;;;53.97;13.30;;;-0.90;99.90;;;;;;5031770;28;20183;-51
2024/01/11 07:53:11;;;;;;;42.30;12.50;;;-0.90;99.90;;;;;;5031605;28;20286;-51
2024/01/11 07:55:37;;;;;;;54.30;12.07;;;-0.80;99.90;;;;;;5030557;28;20183;-51
2024/01/11 07:58:03;;;;;;;48.90;13.23;;;-0.80;99.90;;;;;;5031997;28;20184;-51
2024/01/11 08:00:28;;;;;;;47.30;14.23;;;-0.80;99.90;;;;;;5031862;28;20422;-51
2024/01/11 08:02:54;;;;;;;41.23;13.07;;;-0.80;99.90;;;;;;5031068;28;20179;-50
2024/01/11 08:05:19;;;;;;;41.00;11.83;;;-0.60;99.90;;;;;;5030935;28;20179;-50
2024/01/11 08:07:45;;;;;;;48.43;12.53;;;-0.70;99.90;;;;;;5031704;28;20238;-51
2024/01/11 08:10:11;;;;;;;48.93;12.37;;;-0.70;99.90;;;;;;5035133;28;20250;-51
2024/01/11 08:12:37;;;;;;;37.83;11.63;;;-0.70;99.90;;;;;;5034297;28;20673;-52
2024/01/11 08:15:03;;;;;;;45.70;13.33;;;-0.70;99.90;;;;;;5035342;28;20562;-52
2024/01/11 08:17:28;;;;;;;35.60;11.80;;;-0.70;99.90;;;;;;5033707;28;20421;-52
2024/01/11 08:19:56;;;;;;;33.87;10.87;;;-0.60;99.90;;;;;;5035364;28;20843;-52
2024/01/11 08:22:22;;;;;;;42.60;12.03;;;-0.60;99.90;;;;;;5035231;28;20266;-51
2024/01/11 08:24:48;;;;;;;41.00;12.57;;;-0.50;99.90;;;;;;5034067;28;20442;-51
2024/01/11 08:27:15;;;;;;;57.47;13.73;;;-0.50;99.90;;;;;;5033411;28;20520;-51
2024/01/11 08:29:40;;;;;;;52.40;14.37;;;-0.50;99.90;;;;;;5035092;28;20209;-51
2024/01/11 08:32:06;;;;;;;46.80;13.47;;;-0.40;99.90;;;;;;5034718;28;20410;-52
2024/01/11 08:34:33;;;;;;;44.33;11.90;;;-0.40;99.90;;;;;;5034125;28;20187;-51
2024/01/11 08:36:58;;;;;;;45.77;13.37;;;-0.30;99.90;;;;;;5034376;28;20406;-51
2024/01/11 08:39:24;;;;;;;54.63;14.23;;;-0.30;99.90;;;;;;5034428;28;20441;-51
2024/01/11 08:41:49;;;;;;;45.47;13.70;;;-0.30;99.90;;;;;;5033835;28;20215;-51
2024/01/11 08:44:15;;;;;;;44.83;15.07;;;-0.20;99.90;;;;;;5034435;28;20193;-50
2024/01/11 08:46:40;;;;;;;50.10;13.93;;;-0.20;99.90;;;;;;5033858;28;20222;-51
2024/01/11 08:49:06;;;;;;;48.30;14.40;;;-0.20;99.90;;;;;;5034730;28;20184;-51
2024/01/11 08:51:32;;;;;;;36.00;12.93;;;-0.10;99.90;;;;;;5033777;28;20183;-52
2024/01/11 08:53:58;;;;;;;44.53;13.40;;;-0.10;99.90;;;;;;5033517;28;20684;-52
2024/01/11 08:56:23;;;;;;;42.93;12.80;;;0.00;99.90;;;;;;5034306;28;20268;-52
2024/01/11 08:58:49;;;;;;;41.70;14.47;;;0.10;99.90;;;;;;5033459;28;20472;-51
2024/01/11 09:01:15;;;;;;;38.43;12.20;;;0.10;99.90;;;;;;5033441;28;20266;-51
2024/01/11 09:03:41;;;;;;;52.73;12.80;;;0.10;99.90;;;;;;5033692;28;20186;-51
2024/01/11 09:06:07;;;;;;;42.67;12.20;;;0.20;99.90;;;;;;5033865;28;20406;-50
2024/01/11 09:08:32;;;;;;;33.77;10.50;;;0.20;99.90;;;;;;5032998;28;20293;-51
2024/01/11 09:11:00;;;;;;;28.23;10.00;;;0.30;99.90;;;;;;5033259;28;20184;-51
2024/01/11 09:13:29;;;;;;;38.93;10.80;;;0.30;93.90;;;;;;5033849;28;20214;-51
2024/01/11 09:15:55;;;;;;;32.73;9.90;;;0.30;92.50;;;;;;5033398;28;21032;-53
2024/01/11 09:18:21;;;;;;;32.47;9.77;;;0.30;77.30;;;;;;5033499;28;20418;-50
2024/01/11 09:20:47;;;;;;;31.40;9.33;;;0.30;41.00;;;;;;5033214;28;20635;-50
2024/01/11 09:23:13;;;;;;;27.30;9.03;;;0.30;33.00;;;;;;5033477;28;20545;-50
2024/01/11 09:25:39;;;;;;;25.90;7.83;;;0.30;33.30;;;;;;5032379;28;20427;-50
2024/01/11 09:28:05;;;;;;;20.60;7.83;;;0.40;31.90;;;;;;5033482;28;20430;-51
2024/01/11 09:30:30;;;;;;;29.50;8.53;;;0.40;4.90;;;;;;5032988;28;20426;-51
2024/01/11 09:32:56;;;;;;;30.20;9.77;;;0.40;6.20;;;;;;5033717;28;20207;-51
2024/01/11 09:35:25;;;;;;;30.07;9.53;;;0.50;5.80;;;;;;5032490;28;20194;-51
2024/01/11 09:37:51;;;;;;;23.07;9.53;;;0.50;1.00;;;;;;5033432;28;20187;-50
2024/01/11 09:40:20;;;;;;;26.00;8.63;;;0.60;1.00;;;;;;5033332;28;20415;-52
2024/01/11 09:42:45;;;;;;;28.03;9.60;;;0.70;2.10;;;;;;5033115;28;20191;-51
2024/01/11 09:45:16;;;;;;;34.47;10.47;;;0.80;17.30;;;;;;5033021;28;20449;-51
2024/01/11 09:47:45;;;;;;;31.83;9.83;;;0.80;1.00;;;;;;5032446;28;20263;-51
2024/01/11 09:50:17;;;;;;;32.57;11.67;;;0.90;1.00;;;;;;5032876;28;20482;-51
2024/01/11 09:52:46;;;;;;;33.07;12.17;;;1.00;1.00;;;;;;5032552;28;20506;-51
2024/01/11 09:55:13;;;;;;;32.47;11.97;;;1.00;1.00;;;;;;5032563;28;20456;-52
2024/01/11 09:57:44;;;;;;;33.17;11.57;;;1.00;1.00;;;;;;5032776;28;20453;-52
2024/01/11 10:00:12;;;;;;;28.20;11.30;;;1.10;1.00;;;;;;5032494;28;20486;-51
2024/01/11 10:02:38;;;;;;;31.00;11.87;;;1.10;1.00;;;;;;5032318;28;20465;-52
2024/01/11 10:05:05;;;;;;;39.00;12.37;;;1.00;1.00;;;;;;5033175;28;20418;-51
2024/01/11 10:07:32;;;;;;;35.20;12.10;;;1.10;1.00;;;;;;5032184;28;20784;-52
2024/01/11 10:09:58;;;;;;;34.70;12.27;;;1.10;1.00;;;;;;5032657;28;20422;-51
2024/01/11 10:12:25;;;;;;;48.63;12.63;;;1.10;1.00;;;;;;5032112;28;20418;-51
2024/01/11 10:14:53;;;;;;;34.70;12.77;;;1.10;1.00;;;;;;5032798;28;20244;-51
2024/01/11 10:17:19;;;;;;;35.10;13.47;;;1.10;99.90;;;;;;5032625;28;20422;-52
2024/01/11 10:19:46;;;;;;;37.00;14.33;;;1.10;99.90;;;;;;5031696;28;20421;-53
2024/01/11 10:22:12;;;;;;;35.27;14.20;;;1.10;99.90;;;;;;5032378;28;20415;-51
2024/01/11 10:24:39;;;;;;;41.27;16.70;;;1.10;99.90;;;;;;5032067;28;20898;-52
2024/01/11 10:27:08;;;;;;;45.30;17.00;;;1.10;99.90;;;;;;5032410;28;20418;-52
2024/01/11 10:29:36;;;;;;;48.47;18.60;;;1.10;99.90;;;;;;5032311;28;20410;-53
2024/01/11 10:32:03;;;;;;;49.63;18.23;;;1.20;99.90;;;;;;5030942;28;20458;-51
2024/01/11 10:34:29;;;;;;;49.10;17.63;;;1.10;99.90;;;;;;5031731;28;20466;-51
2024/01/11 10:36:54;;;;;;;48.33;18.03;;;1.20;99.90;;;;;;5032367;28;20422;-51
2024/01/11 10:39:25;;;;;;;48.73;17.40;;;1.20;99.90;;;;;;5032378;28;20269;-51
2024/01/11 10:41:59;;;;;;;49.67;16.70;;;1.30;99.90;;;;;;5031789;28;20217;-51
2024/01/11 10:44:30;;;;;;;49.20;17.30;;;1.30;99.90;;;;;;5031984;28;20431;-54
2024/01/11 10:46:57;;;;;;;46.50;17.80;;;1.40;99.90;;;;;;5031522;28;20907;-51
2024/01/11 10:49:25;;;;;;;44.27;17.67;;;1.40;99.90;;;;;;5032271;28;20542;-51
2024/01/11 10:52:03;;;;;;;51.90;19.53;;;1.40;1.00;;;;;;5032126;28;20810;-51
2024/01/11 10:54:30;;;;;;;45.83;18.50;;;1.40;54.60;;;;;;5031775;28;20473;-51
2024/01/11 10:56:59;;;;;;;41.27;16.63;;;1.40;44.80;;;;;;5031476;28;20433;-52
2024/01/11 10:59:26;;;;;;;41.67;16.80;;;1.40;99.90;;;;;;5030975;28;20429;-53
2024/01/11 11:01:57;;;;;;;45.37;16.17;;;1.40;37.70;;;;;;5032015;28;20422;-52
2024/01/11 11:04:24;;;;;;;41.77;15.73;;;1.40;99.90;;;;;;5032334;28;20424;-52
2024/01/11 11:06:58;;;;;;;42.90;17.03;;;1.40;99.90;;;;;;5031285;28;20904;-51
2024/01/11 11:09:25;;;;;;;41.50;15.87;;;1.50;99.90;;;;;;5031472;28;20474;-51
2024/01/11 11:11:55;;;;;;;45.23;17.40;;;1.40;81.10;;;;;;5031507;28;20463;-51
2024/01/11 11:14:22;;;;;;;43.40;16.57;;;1.50;99.90;;;;;;5031914;28;20958;-51
2024/01/11 11:16:48;;;;;;;42.33;15.90;;;1.50;68.60;;;;;;5031231;28;20427;-51
2024/01/11 11:19:14;;;;;;;46.63;16.90;;;1.50;1.00;;;;;;5031691;28;20419;-52
2024/01/11 11:21:44;;;;;;;49.13;17.43;;;1.40;1.00;;;;;;5031407;28;20422;-51
2024/01/11 11:24:10;;;;;;;49.60;18.10;;;1.50;99.90;;;;;;5031299;28;20422;-52
2024/01/11 11:26:36;;;;;;;65.87;20.80;;;1.50;99.90;;;;;;5031340;28;20505;-51
2024/01/11 11:29:03;;;;;;;50.40;19.90;;;1.50;99.90;;;;;;5031989;28;20871;-51
2024/01/11 11:31:35;;;;;;;47.07;18.23;;;1.50;99.90;;;;;;5030841;28;20182;-51
2024/01/11 11:34:03;;;;;;;57.33;19.67;;;1.50;99.90;;;;;;5031456;28;20478;-53
2024/01/11 11:36:30;;;;;;;52.23;18.97;;;1.50;99.90;;;;;;5032027;28;20423;-50
2024/01/11 11:39:00;;;;;;;54.50;21.00;;;1.60;99.90;;;;;;5030949;28;20418;-51
2024/01/11 11:41:26;;;;;;;55.30;19.53;;;1.60;99.90;;;;;;5031603;28;20763;-51
2024/01/11 11:43:52;;;;;;;51.43;19.70;;;1.60;85.20;;;;;;5033954;28;20914;-51
2024/01/11 11:46:19;;;;;;;49.00;18.47;;;1.60;1.00;;;;;;5033761;28;20529;-53
2024/01/11 11:48:51;;;;;;;56.20;20.77;;;1.60;70.00;;;;;;5035355;28;20183;-51
2024/01/11 11:51:18;;;;;;;48.50;18.80;;;1.60;99.90;;;;;;5035665;28;20454;-51
2024/01/11 11:53:46;;;;;;;58.60;20.33;;;1.70;99.90;;;;;;5035016;28;20457;-51
2024/01/11 11:56:14;;;;;;;55.70;19.90;;;1.70;99.90;;;;;;5035093;28;20429;-51
2024/01/11 11:58:40;;;;;;;55.83;20.43;;;1.70;99.90;;;;;;5034184;28;20422;-51
2024/01/11 12:01:06;;;;;;;63.97;20.70;;;1.70;1.00;;;;;;5035080;28;20790;-51
2024/01/11 12:03:39;;;;;;;55.33;20.63;;;1.70;1.00;;;;;;5034458;28;20238;-51
2024/01/11 12:06:10;;;;;;;56.57;20.80;;;1.70;1.00;;;;;;5035077;28;20254;-51
2024/01/11 12:08:37;;;;;;;60.20;19.97;;;1.70;1.00;;;;;;5034975;28;20961;-52
2024/01/11 12:11:03;;;;;;;55.80;19.63;;;1.70;1.00;;;;;;5034894;28;20409;-51
2024/01/11 12:13:29;;;;;;;51.20;19.37;;;1.60;1.00;;;;;;5033790;28;20465;-53
2024/01/11 12:15:56;;;;;;;56.90;19.50;;;1.70;22.10;;;;;;5035267;28;20461;-52
2024/01/11 12:18:21;;;;;;;65.10;21.97;;;1.70;99.90;;;;;;5034430;28;20788;-52
2024/01/11 12:20:47;;;;;;;53.90;20.93;;;1.70;99.90;;;;;;5035031;28;20441;-52
2024/01/11 12:23:15;;;;;;;62.07;22.53;;;1.70;99.90;;;;;;5034670;28;20184;-51
2024/01/11 12:25:41;;;;;;;51.37;19.13;;;1.70;97.30;;;;;;5033472;28;20180;-52
2024/01/11 12:28:07;;;;;;;54.63;19.40;;;1.70;99.90;;;;;;5033621;28;20417;-51